Time;durP1;ratioP1;P1;durP2;ratioP2;P2;SDS_P1;SDS_P2;PMS_P1;PMS_P2;Temp;Humidity;BMP_temperature;BMP_pressure;BME280_temperature;BME280_humidity;BME280_pressure;Samples;Min_cycle;Max_cycle;Signal;HPM_P1;HPM_P2
2023/09/05 00:00:14;;;;;;;0.50;0.50;;;23.80;79.30;;;;;;4968043;28;20031;-80
2023/09/05 00:02:40;;;;;;;0.77;0.77;;;23.80;79.20;;;;;;4965501;28;20434;-79
2023/09/05 00:05:07;;;;;;;1.00;1.00;;;23.80;79.10;;;;;;4965682;28;20046;-80
2023/09/05 00:07:36;;;;;;;0.70;0.70;;;23.80;79.20;;;;;;4967414;28;20047;-79
2023/09/05 00:10:03;;;;;;;0.63;0.63;;;23.90;79.10;;;;;;4969454;28;20436;-79
2023/09/05 00:12:30;;;;;;;0.85;0.70;;;23.80;79.10;;;;;;4968371;28;20050;-80
2023/09/05 00:14:55;;;;;;;0.70;0.70;;;23.80;79.10;;;;;;4965585;28;20065;-80
2023/09/05 00:17:21;;;;;;;1.58;0.65;;;23.80;79.10;;;;;;4963939;28;20409;-80
2023/09/05 00:19:47;;;;;;;0.80;0.80;;;23.80;79.10;;;;;;4966708;28;20045;-80
2023/09/05 00:22:13;;;;;;;0.88;0.70;;;23.80;79.10;;;;;;4969681;28;20030;-80
2023/09/05 00:24:39;;;;;;;0.70;0.70;;;23.80;79.00;;;;;;4965376;28;20030;-79
2023/09/05 00:27:09;;;;;;;0.90;0.90;;;23.80;79.00;;;;;;4963885;28;20047;-80
2023/09/05 00:29:35;;;;;;;0.60;0.60;;;23.80;79.00;;;;;;4966269;28;20082;-79
2023/09/05 00:32:02;;;;;;;0.68;0.60;;;23.80;79.00;;;;;;4964310;28;20150;-80
2023/09/05 00:34:28;;;;;;;0.60;0.60;;;23.80;79.00;;;;;;4963025;28;20051;-80
2023/09/05 00:36:53;;;;;;;0.60;0.60;;;23.70;78.90;;;;;;4967515;28;20472;-80
2023/09/05 00:39:19;;;;;;;1.00;1.00;;;23.80;79.00;;;;;;4965145;28;20071;-80
2023/09/05 00:41:45;;;;;;;0.70;0.70;;;23.80;79.00;;;;;;4964818;28;20424;-79
2023/09/05 00:44:13;;;;;;;1.05;0.80;;;23.80;79.00;;;;;;4968771;28;20042;-79
2023/09/05 00:46:41;;;;;;;0.75;0.70;;;23.80;78.90;;;;;;4967520;28;20054;-79
2023/09/05 00:49:10;;;;;;;0.60;0.60;;;23.70;78.80;;;;;;4982148;28;20042;-79
2023/09/05 00:51:37;;;;;;;0.60;0.60;;;23.80;78.90;;;;;;4965176;28;20173;-79
2023/09/05 00:54:02;;;;;;;0.70;0.70;;;23.70;78.70;;;;;;4965091;28;20057;-79
2023/09/05 00:56:28;;;;;;;0.68;0.63;;;23.80;79.00;;;;;;4947729;28;20043;-78
2023/09/05 00:58:54;;;;;;;0.52;0.52;;;23.70;78.80;;;;;;4965374;28;20566;-79
2023/09/05 01:01:19;;;;;;;0.60;0.60;;;23.70;78.70;;;;;;4968616;28;20126;-79
2023/09/05 01:03:45;;;;;;;0.60;0.60;;;23.80;78.90;;;;;;4966979;28;20054;-79
2023/09/05 01:06:14;;;;;;;0.60;0.60;;;23.70;78.80;;;;;;4964804;28;20093;-79
2023/09/05 01:08:50;;;;;;;0.70;0.70;;;23.70;78.80;;;;;;4946065;28;20120;-79
2023/09/05 01:11:15;;;;;;;0.47;0.47;;;23.70;78.70;;;;;;4967150;28;20079;-79
2023/09/05 01:13:41;;;;;;;0.75;0.75;;;23.70;78.60;;;;;;4965861;28;20051;-79
2023/09/05 01:16:08;;;;;;;0.55;0.55;;;23.80;78.70;;;;;;4964197;28;20081;-79
2023/09/05 01:18:34;;;;;;;0.60;0.60;;;23.70;78.60;;;;;;4964541;28;20050;-81
2023/09/05 01:21:39;;;;;;;0.60;0.60;;;23.80;79.50;;;;;;4963890;28;20034;-79
2023/09/05 01:24:17;;;;;;;0.57;0.57;;;23.70;78.60;;;;;;4962938;28;20042;-79
2023/09/05 01:26:43;;;;;;;1.08;0.60;;;23.70;78.60;;;;;;4965549;28;20097;-78
2023/09/05 01:29:09;;;;;;;0.60;0.60;;;23.70;78.60;;;;;;4964943;28;20050;-79
2023/09/05 01:31:34;;;;;;;0.55;0.55;;;23.70;78.60;;;;;;4964448;28;20081;-80
2023/09/05 01:34:00;;;;;;;0.70;0.70;;;23.70;78.60;;;;;;4968056;28;20477;-79
2023/09/05 01:36:25;;;;;;;0.70;0.70;;;23.70;78.60;;;;;;4966807;28;20086;-79
2023/09/05 01:38:51;;;;;;;0.60;0.60;;;23.70;78.60;;;;;;4964263;28;20050;-80
2023/09/05 01:41:17;;;;;;;0.70;0.70;;;23.70;78.50;;;;;;4965356;28;20203;-79
2023/09/05 01:43:42;;;;;;;0.60;0.60;;;23.70;79.30;;;;;;4966091;28;20067;-79
2023/09/05 01:46:09;;;;;;;0.63;0.50;;;23.70;78.60;;;;;;4966543;28;20055;-80
2023/09/05 01:48:35;;;;;;;0.80;0.80;;;23.70;78.60;;;;;;4966301;28;20043;-80
2023/09/05 01:51:00;;;;;;;0.50;0.50;;;23.70;78.50;;;;;;4962896;28;20062;-80
2023/09/05 01:53:26;;;;;;;0.52;0.52;;;23.70;78.50;;;;;;4965913;28;20421;-79
2023/09/05 01:55:52;;;;;;;0.85;0.85;;;23.70;78.50;;;;;;4965778;28;20104;-80
2023/09/05 01:58:17;;;;;;;0.68;0.68;;;23.70;78.50;;;;;;4965877;28;20053;-79
2023/09/05 02:00:43;;;;;;;0.75;0.75;;;23.70;78.50;;;;;;4965010;28;20085;-79
2023/09/05 02:03:10;;;;;;;0.70;0.60;;;23.70;78.50;;;;;;4966473;28;20128;-79
2023/09/05 02:05:36;;;;;;;0.60;0.60;;;23.70;78.50;;;;;;4965301;28;20055;-80
2023/09/05 02:08:01;;;;;;;0.50;0.50;;;23.70;78.40;;;;;;4961821;28;20465;-80
2023/09/05 02:10:29;;;;;;;0.50;0.50;;;23.70;78.40;;;;;;4965979;28;20121;-80
2023/09/05 02:12:55;;;;;;;0.80;0.80;;;23.70;78.40;;;;;;4964335;28;20039;-80
2023/09/05 02:15:20;;;;;;;0.50;0.50;;;23.70;78.40;;;;;;4966494;28;20086;-80
2023/09/05 02:17:46;;;;;;;0.47;0.47;;;23.70;78.40;;;;;;4964391;28;20039;-79
2023/09/05 02:20:12;;;;;;;0.75;0.75;;;23.70;78.40;;;;;;4964291;28;20206;-79
2023/09/05 02:22:37;;;;;;;0.60;0.60;;;23.70;78.40;;;;;;4963776;28;20046;-79
2023/09/05 02:25:03;;;;;;;0.50;0.50;;;23.70;78.40;;;;;;4960683;28;20047;-80
2023/09/05 02:27:28;;;;;;;0.60;0.60;;;23.70;78.40;;;;;;4959876;28;20042;-81
2023/09/05 02:30:01;;;;;;;1.38;0.50;;;23.70;78.40;;;;;;4958387;28;20028;-81
2023/09/05 02:32:29;;;;;;;0.70;0.70;;;23.70;79.30;;;;;;4962149;28;20055;-80
2023/09/05 02:34:55;;;;;;;0.50;0.50;;;23.70;78.60;;;;;;4961182;28;20051;-80
2023/09/05 02:37:21;;;;;;;0.55;0.55;;;23.70;78.80;;;;;;4961470;28;20122;-79
2023/09/05 02:39:46;;;;;;;0.70;0.70;;;23.70;78.90;;;;;;4964676;28;20043;-79
2023/09/05 02:42:12;;;;;;;0.88;0.55;;;23.70;78.80;;;;;;4964929;28;20571;-79
2023/09/05 02:44:37;;;;;;;2.10;0.70;;;23.70;78.90;;;;;;4966601;28;20037;-79
2023/09/05 02:47:03;;;;;;;0.57;0.57;;;23.70;78.90;;;;;;4966623;28;20049;-79
2023/09/05 02:49:29;;;;;;;0.60;0.60;;;23.70;78.80;;;;;;4966214;28;20571;-79
2023/09/05 02:51:56;;;;;;;0.52;0.52;;;23.70;78.80;;;;;;4965503;28;20046;-79
2023/09/05 02:54:22;;;;;;;0.98;0.60;;;23.70;78.70;;;;;;4964839;28;20046;-79
2023/09/05 02:56:48;;;;;;;0.82;0.82;;;23.70;78.80;;;;;;4965141;28;20050;-79
2023/09/05 02:59:13;;;;;;;0.60;0.60;;;23.70;78.80;;;;;;4966184;28;20074;-80
2023/09/05 03:01:39;;;;;;;0.70;0.70;;;23.70;78.70;;;;;;4966842;28;20559;-79
2023/09/05 03:04:05;;;;;;;1.77;0.73;;;23.70;78.70;;;;;;4966603;28;20094;-79
2023/09/05 03:06:30;;;;;;;0.55;0.55;;;23.70;78.70;;;;;;4966677;28;20035;-79
2023/09/05 03:08:56;;;;;;;0.63;0.63;;;23.60;78.60;;;;;;4966043;28;20479;-79
2023/09/05 03:11:21;;;;;;;0.60;0.60;;;23.70;78.60;;;;;;4965924;28;20129;-79
2023/09/05 03:13:47;;;;;;;0.55;0.55;;;23.70;78.50;;;;;;4964388;28;20041;-79
2023/09/05 03:16:14;;;;;;;0.70;0.70;;;23.70;78.40;;;;;;4967478;28;20037;-79
2023/09/05 03:18:39;;;;;;;0.65;0.65;;;23.70;78.40;;;;;;4966256;28;20122;-79
2023/09/05 03:21:05;;;;;;;0.50;0.50;;;23.60;78.30;;;;;;4965616;28;20196;-80
2023/09/05 03:23:30;;;;;;;0.60;0.60;;;23.70;78.30;;;;;;4966087;28;20031;-80
2023/09/05 03:25:56;;;;;;;0.50;0.50;;;23.60;78.20;;;;;;4965735;28;20432;-79
2023/09/05 03:28:22;;;;;;;0.65;0.65;;;23.70;78.30;;;;;;4965334;28;20444;-79
2023/09/05 03:30:48;;;;;;;0.50;0.50;;;23.60;78.30;;;;;;4965580;28;20043;-79
2023/09/05 03:33:13;;;;;;;0.65;0.65;;;23.60;78.20;;;;;;4964425;28;20047;-79
2023/09/05 03:35:39;;;;;;;0.55;0.55;;;23.70;78.30;;;;;;4965852;28;20046;-79
2023/09/05 03:38:07;;;;;;;0.63;0.63;;;23.60;78.20;;;;;;4968863;28;20055;-79
2023/09/05 03:40:34;;;;;;;0.60;0.60;;;23.60;78.20;;;;;;4971332;28;20049;-80
2023/09/05 03:42:59;;;;;;;0.80;0.73;;;23.60;78.10;;;;;;4965514;28;20038;-79
2023/09/05 03:45:27;;;;;;;0.73;0.73;;;23.60;78.10;;;;;;4967091;28;20053;-79
2023/09/05 03:47:53;;;;;;;1.45;0.60;;;23.60;78.10;;;;;;4964711;28;20038;-80
2023/09/05 03:50:19;;;;;;;0.45;0.45;;;23.60;78.00;;;;;;4969116;28;20066;-79
2023/09/05 03:52:45;;;;;;;0.70;0.70;;;23.60;78.10;;;;;;4970293;28;20101;-79
2023/09/05 03:55:10;;;;;;;0.40;0.40;;;23.70;78.00;;;;;;4970709;28;20031;-79
2023/09/05 03:57:36;;;;;;;0.60;0.60;;;23.60;77.90;;;;;;4969203;28;20027;-80
2023/09/05 04:00:03;;;;;;;0.60;0.60;;;23.60;77.90;;;;;;4968355;28;20549;-79
2023/09/05 04:02:29;;;;;;;0.80;0.80;;;23.70;78.00;;;;;;4967517;28;20070;-80
2023/09/05 04:04:55;;;;;;;0.40;0.40;;;23.60;77.90;;;;;;4967080;28;20082;-79
2023/09/05 04:07:21;;;;;;;1.85;0.60;;;23.60;77.90;;;;;;4971112;28;20420;-80
2023/09/05 04:09:47;;;;;;;0.40;0.40;;;23.60;77.80;;;;;;4967809;28;20027;-78
2023/09/05 04:12:12;;;;;;;0.60;0.60;;;23.60;77.90;;;;;;4969386;28;20057;-80
2023/09/05 04:14:38;;;;;;;0.63;0.63;;;23.60;77.80;;;;;;4969868;28;20567;-79
2023/09/05 04:17:03;;;;;;;0.88;0.45;;;23.60;77.80;;;;;;4969297;28;20039;-79
2023/09/05 04:19:29;;;;;;;1.38;0.40;;;23.60;77.80;;;;;;4970248;28;20122;-79
2023/09/05 04:21:54;;;;;;;0.50;0.50;;;23.60;77.70;;;;;;4967729;28;20551;-79
2023/09/05 04:24:20;;;;;;;0.60;0.60;;;23.60;77.70;;;;;;4967654;28;20436;-80
2023/09/05 04:26:46;;;;;;;0.57;0.57;;;23.60;77.70;;;;;;4969015;28;20134;-79
2023/09/05 04:29:11;;;;;;;0.60;0.60;;;23.60;78.50;;;;;;4968958;28;20043;-80
2023/09/05 04:31:37;;;;;;;0.52;0.52;;;23.60;77.70;;;;;;4969757;28;20049;-80
2023/09/05 04:34:02;;;;;;;0.57;0.57;;;23.60;77.70;;;;;;4967834;28;20122;-79
2023/09/05 04:36:28;;;;;;;0.50;0.50;;;23.60;77.70;;;;;;4968030;28;20034;-79
2023/09/05 04:38:54;;;;;;;0.60;0.60;;;23.60;77.70;;;;;;4967824;28;20066;-79
2023/09/05 04:41:20;;;;;;;0.60;0.60;;;23.60;77.70;;;;;;4967852;28;20051;-79
2023/09/05 04:43:46;;;;;;;0.50;0.50;;;23.60;77.60;;;;;;4967753;28;20393;-79
2023/09/05 04:46:12;;;;;;;0.70;0.70;;;23.60;77.60;;;;;;4968799;28;20057;-79
2023/09/05 04:48:38;;;;;;;0.50;0.50;;;23.60;77.60;;;;;;4966009;28;20051;-79
2023/09/05 04:51:04;;;;;;;0.60;0.60;;;23.60;77.60;;;;;;4965087;28;20042;-79
2023/09/05 04:53:30;;;;;;;0.57;0.57;;;23.60;77.50;;;;;;4968088;28;20468;-80
2023/09/05 04:55:58;;;;;;;0.73;0.73;;;23.60;77.50;;;;;;4968197;28;25522;-79
2023/09/05 04:58:24;;;;;;;0.70;0.70;;;23.60;77.60;;;;;;4968309;28;20456;-79
2023/09/05 05:00:49;;;;;;;0.50;0.50;;;23.60;77.50;;;;;;4967994;28;20043;-76
2023/09/05 05:03:15;;;;;;;0.60;0.60;;;23.60;77.50;;;;;;4965588;28;20394;-80
2023/09/05 05:05:41;;;;;;;0.55;0.55;;;23.60;77.50;;;;;;4967512;28;20126;-79
2023/09/05 05:08:06;;;;;;;0.40;0.40;;;23.60;77.50;;;;;;4968062;28;20042;-79
2023/09/05 05:10:33;;;;;;;0.70;0.70;;;23.60;77.50;;;;;;4970801;28;20074;-80
2023/09/05 05:13:00;;;;;;;0.63;0.63;;;23.60;77.40;;;;;;4967373;28;20054;-79
2023/09/05 05:15:25;;;;;;;0.55;0.50;;;23.60;77.40;;;;;;4966889;28;20043;-79
2023/09/05 05:17:51;;;;;;;0.50;0.50;;;23.60;77.40;;;;;;4965634;28;20039;-76
2023/09/05 05:20:18;;;;;;;0.50;0.50;;;23.60;78.10;;;;;;4967783;28;20047;-79
2023/09/05 05:22:44;;;;;;;0.50;0.50;;;23.60;77.40;;;;;;4967540;28;20062;-79
2023/09/05 05:25:10;;;;;;;0.80;0.80;;;23.60;77.30;;;;;;4968725;28;20062;-79
2023/09/05 05:27:35;;;;;;;0.60;0.60;;;23.60;77.30;;;;;;4967544;28;20026;-81
2023/09/05 05:30:02;;;;;;;0.75;0.50;;;23.60;77.20;;;;;;4966741;28;20047;-81
2023/09/05 05:32:27;;;;;;;0.50;0.50;;;23.60;77.20;;;;;;4967423;28;20074;-82
2023/09/05 05:34:54;;;;;;;0.60;0.60;;;23.70;77.30;;;;;;4964632;28;20524;-81
2023/09/05 05:37:19;;;;;;;0.50;0.50;;;23.60;77.10;;;;;;4968486;28;20047;-81
2023/09/05 05:39:45;;;;;;;0.70;0.70;;;23.70;77.20;;;;;;4967224;28;20041;-82
2023/09/05 05:42:11;;;;;;;0.40;0.40;;;23.60;77.10;;;;;;4967254;28;20421;-81
2023/09/05 05:44:37;;;;;;;0.60;0.60;;;23.70;77.10;;;;;;4970246;28;20050;-82
2023/09/05 05:47:03;;;;;;;0.50;0.50;;;23.60;77.00;;;;;;4966612;28;20073;-81
2023/09/05 05:49:29;;;;;;;0.50;0.50;;;23.60;77.10;;;;;;4963978;28;20041;-82
2023/09/05 05:51:58;;;;;;;0.57;0.57;;;23.60;77.00;;;;;;4974236;28;20055;-82
2023/09/05 05:54:27;;;;;;;0.50;0.50;;;23.60;77.30;;;;;;4965888;28;20053;-80
2023/09/05 05:56:53;;;;;;;0.43;0.43;;;23.60;77.00;;;;;;4965799;28;20030;-78
2023/09/05 05:59:19;;;;;;;0.57;0.57;;;23.60;77.00;;;;;;4966674;28;20069;-82
2023/09/05 06:01:45;;;;;;;0.60;0.60;;;23.60;77.00;;;;;;4966220;28;20577;-82
2023/09/05 06:04:12;;;;;;;0.60;0.60;;;23.60;77.00;;;;;;4966285;28;20128;-82
2023/09/05 06:06:38;;;;;;;0.57;0.57;;;23.60;76.90;;;;;;4967069;28;20043;-81
2023/09/05 06:09:04;;;;;;;0.70;0.70;;;23.60;76.90;;;;;;4964387;28;20050;-81
2023/09/05 06:11:29;;;;;;;0.68;0.68;;;23.60;76.90;;;;;;4963705;28;20045;-82
2023/09/05 06:13:55;;;;;;;0.52;0.52;;;23.60;77.00;;;;;;4964907;28;20113;-81
2023/09/05 06:16:21;;;;;;;0.63;0.63;;;23.60;76.90;;;;;;4968381;28;20051;-82
2023/09/05 06:18:46;;;;;;;0.60;0.60;;;23.60;77.20;;;;;;4963109;28;20050;-82
2023/09/05 06:21:12;;;;;;;0.55;0.55;;;23.60;77.40;;;;;;4964231;28;20046;-82
2023/09/05 06:23:37;;;;;;;0.70;0.70;;;23.70;77.00;;;;;;4964744;28;20038;-82
2023/09/05 06:26:03;;;;;;;0.50;0.50;;;23.60;77.30;;;;;;4965457;28;20126;-82
2023/09/05 06:28:28;;;;;;;0.75;0.52;;;23.60;77.10;;;;;;4967380;28;20051;-82
2023/09/05 06:30:57;;;;;;;0.45;0.45;;;23.60;77.00;;;;;;4965830;28;20527;-82
2023/09/05 06:33:23;;;;;;;0.50;0.50;;;23.60;77.10;;;;;;4964956;28;20043;-82
2023/09/05 06:35:49;;;;;;;0.60;0.60;;;23.60;77.10;;;;;;4967558;28;20384;-82
2023/09/05 06:38:14;;;;;;;0.50;0.50;;;23.60;77.10;;;;;;4965393;28;20442;-82
2023/09/05 06:40:40;;;;;;;0.52;0.52;;;23.60;77.00;;;;;;4966620;28;20043;-82
2023/09/05 06:43:07;;;;;;;0.40;0.40;;;23.60;76.90;;;;;;4967310;28;20042;-82
2023/09/05 06:45:32;;;;;;;0.50;0.50;;;23.60;76.90;;;;;;4964637;28;20469;-82
2023/09/05 06:47:58;;;;;;;0.60;0.60;;;23.60;76.90;;;;;;4961996;28;20500;-81
2023/09/05 06:50:24;;;;;;;0.50;0.50;;;23.60;76.90;;;;;;4963997;28;20042;-82
2023/09/05 06:52:49;;;;;;;0.57;0.57;;;23.60;76.90;;;;;;4966983;28;20078;-82
2023/09/05 06:55:15;;;;;;;0.60;0.60;;;23.60;76.90;;;;;;4964343;28;20576;-82
2023/09/05 06:57:40;;;;;;;0.40;0.40;;;23.60;76.90;;;;;;4944803;28;20098;-82
2023/09/05 07:00:07;;;;;;;0.70;0.70;;;23.60;76.90;;;;;;4964143;28;20130;-82
2023/09/05 07:02:33;;;;;;;0.55;0.55;;;23.60;77.00;;;;;;4963177;28;20031;-82
2023/09/05 07:04:58;;;;;;;0.47;0.47;;;23.60;76.80;;;;;;4964142;28;20041;-82
2023/09/05 07:07:25;;;;;;;0.50;0.50;;;23.60;76.80;;;;;;4967112;28;20043;-82
2023/09/05 07:09:51;;;;;;;0.50;0.50;;;23.60;76.80;;;;;;4966992;28;20055;-82
2023/09/05 07:12:16;;;;;;;0.60;0.60;;;23.60;76.80;;;;;;4967894;28;20409;-82
2023/09/05 07:14:45;;;;;;;0.60;0.60;;;23.60;76.90;;;;;;4969990;28;20053;-82
2023/09/05 07:17:11;;;;;;;0.55;0.55;;;23.60;76.80;;;;;;4968621;28;20713;-82
2023/09/05 07:19:36;;;;;;;0.50;0.50;;;23.60;76.90;;;;;;4971406;28;20039;-82
2023/09/05 07:22:03;;;;;;;1.05;0.50;;;23.60;77.40;;;;;;4970782;28;20042;-82
2023/09/05 07:24:29;;;;;;;0.57;0.57;;;23.60;76.80;;;;;;4970086;28;20050;-83
2023/09/05 07:26:54;;;;;;;0.50;0.50;;;23.60;76.90;;;;;;4970042;28;20051;-82
2023/09/05 07:29:20;;;;;;;0.60;0.60;;;23.60;76.70;;;;;;4969890;28;20098;-82
2023/09/05 07:31:45;;;;;;;0.68;0.68;;;23.60;76.70;;;;;;4969879;28;20047;-82
2023/09/05 07:34:11;;;;;;;0.60;0.60;;;23.60;76.70;;;;;;4970287;28;20054;-82
2023/09/05 07:36:37;;;;;;;0.68;0.68;;;23.60;76.70;;;;;;4969953;28;20132;-82
2023/09/05 07:39:04;;;;;;;0.52;0.52;;;23.60;76.70;;;;;;4969025;28;20078;-82
2023/09/05 07:41:33;;;;;;;0.50;0.50;;;23.60;76.70;;;;;;4970102;28;20042;-82
2023/09/05 07:43:58;;;;;;;0.60;0.60;;;23.60;76.70;;;;;;4967159;28;20047;-82
2023/09/05 07:46:24;;;;;;;0.50;0.50;;;23.60;76.70;;;;;;4970207;28;20069;-82
2023/09/05 07:48:49;;;;;;;0.50;0.50;;;23.60;76.70;;;;;;4969945;28;20074;-82
2023/09/05 07:51:15;;;;;;;0.88;0.47;;;23.60;76.70;;;;;;4968623;28;20055;-82
2023/09/05 07:53:50;;;;;;;0.60;0.60;;;23.60;76.90;;;;;;4969653;28;20101;-82
2023/09/05 07:56:15;;;;;;;0.50;0.50;;;23.60;76.60;;;;;;4968048;28;20049;-83
2023/09/05 07:58:41;;;;;;;0.60;0.60;;;23.60;77.50;;;;;;4967501;28;20043;-79
2023/09/05 08:01:09;;;;;;;0.52;0.52;;;23.60;76.80;;;;;;4967967;28;20513;-82
2023/09/05 08:03:35;;;;;;;0.60;0.60;;;23.60;77.10;;;;;;4969330;28;20046;-82
2023/09/05 08:06:01;;;;;;;0.57;0.57;;;23.60;77.50;;;;;;4968596;28;20039;-80
2023/09/05 08:08:26;;;;;;;0.73;0.73;;;23.60;77.50;;;;;;4970024;28;20058;-83
2023/09/05 08:10:52;;;;;;;0.77;0.77;;;23.60;77.70;;;;;;4971028;28;20047;-82
2023/09/05 08:13:17;;;;;;;0.40;0.40;;;23.60;77.70;;;;;;4965051;28;20575;-83
2023/09/05 08:15:43;;;;;;;0.60;0.60;;;23.60;77.60;;;;;;4966616;28;20507;-82
2023/09/05 08:18:12;;;;;;;0.60;0.60;;;23.60;77.60;;;;;;4965365;28;20039;-83
2023/09/05 08:20:39;;;;;;;0.70;0.70;;;23.60;77.50;;;;;;4966842;28;20141;-83
2023/09/05 08:23:05;;;;;;;0.60;0.60;;;23.60;77.50;;;;;;4964921;28;20126;-83
2023/09/05 08:25:32;;;;;;;0.52;0.52;;;23.70;77.40;;;;;;4969139;28;20051;-83
2023/09/05 08:27:57;;;;;;;0.70;0.70;;;23.70;78.20;;;;;;4968410;28;20035;-83
2023/09/05 08:30:27;;;;;;;0.63;0.63;;;23.70;77.20;;;;;;4967228;28;20043;-82
2023/09/05 08:32:57;;;;;;;0.57;0.57;;;23.60;77.20;;;;;;4966339;28;20043;-83
2023/09/05 08:35:22;;;;;;;0.85;0.60;;;23.60;77.20;;;;;;4968854;28;20035;-84
2023/09/05 08:37:48;;;;;;;0.70;0.70;;;23.60;77.10;;;;;;4963904;28;20039;-83
2023/09/05 08:40:15;;;;;;;0.60;0.60;;;23.70;77.30;;;;;;4965499;28;20070;-82
2023/09/05 08:42:41;;;;;;;0.55;0.55;;;23.70;77.30;;;;;;4960134;28;20105;-83
2023/09/05 08:45:11;;;;;;;0.60;0.60;;;23.70;77.20;;;;;;4978695;28;20046;-82
2023/09/05 08:47:37;;;;;;;0.68;0.68;;;23.70;77.10;;;;;;4965311;28;20031;-83
2023/09/05 08:50:04;;;;;;;0.70;0.70;;;23.70;77.10;;;;;;4960812;28;20050;-82
2023/09/05 08:52:32;;;;;;;0.60;0.60;;;23.70;77.10;;;;;;4966013;28;20531;-82
2023/09/05 08:54:58;;;;;;;0.43;0.43;;;23.70;77.90;;;;;;4964881;28;20641;-83
2023/09/05 08:57:23;;;;;;;0.70;0.70;;;23.70;77.10;;;;;;4964583;28;20073;-83
2023/09/05 08:59:49;;;;;;;0.68;0.68;;;23.70;77.10;;;;;;4963117;28;20485;-84
2023/09/05 09:02:16;;;;;;;0.52;0.52;;;23.70;77.20;;;;;;4959607;28;20050;-84
2023/09/05 09:04:51;;;;;;;0.60;0.60;;;23.70;77.10;;;;;;4962739;28;20038;-84
2023/09/05 09:07:17;;;;;;;0.55;0.55;;;23.70;77.20;;;;;;4967901;28;20041;-83
2023/09/05 09:09:43;;;;;;;0.95;0.95;;;23.70;77.20;;;;;;4963684;28;20401;-84
2023/09/05 09:12:08;;;;;;;0.60;0.60;;;23.70;77.20;;;;;;4963077;28;20062;-83
2023/09/05 09:14:34;;;;;;;0.60;0.60;;;23.70;77.30;;;;;;4966664;28;20410;-83
2023/09/05 09:17:04;;;;;;;0.50;0.50;;;23.70;77.20;;;;;;4967058;28;20528;-84
2023/09/05 09:19:30;;;;;;;0.75;0.70;;;23.70;77.30;;;;;;4959832;28;20051;-84
2023/09/05 09:22:03;;;;;;;0.65;0.65;;;23.70;77.30;;;;;;4957000;28;20037;-84
2023/09/05 09:24:35;;;;;;;0.82;0.82;;;23.70;78.00;;;;;;4952504;28;20118;-84
2023/09/05 09:27:02;;;;;;;0.57;0.57;;;23.70;77.30;;;;;;4952097;28;20047;-84
2023/09/05 09:29:27;;;;;;;0.52;0.52;;;23.70;77.30;;;;;;4952144;28;20031;-85
2023/09/05 09:32:06;;;;;;;0.95;0.60;;;23.70;77.30;;;;;;4954127;28;20580;-84
2023/09/05 09:34:36;;;;;;;0.70;0.70;;;23.70;77.30;;;;;;4958260;28;20039;-83
2023/09/05 09:37:02;;;;;;;0.65;0.65;;;23.70;77.30;;;;;;4963562;28;20043;-84
2023/09/05 09:39:32;;;;;;;0.70;0.70;;;23.70;77.30;;;;;;4964997;28;20429;-84
2023/09/05 09:42:01;;;;;;;0.82;0.70;;;23.70;77.40;;;;;;4961166;28;20272;-84
2023/09/05 09:44:32;;;;;;;1.38;0.70;;;23.70;77.30;;;;;;4958573;28;20528;-83
2023/09/05 09:46:58;;;;;;;1.75;0.90;;;23.80;77.40;;;;;;4963017;28;20173;-84
2023/09/05 09:49:25;;;;;;;0.77;0.77;;;23.80;77.40;;;;;;4963756;28;20061;-83
2023/09/05 09:51:55;;;;;;;0.50;0.50;;;23.70;77.40;;;;;;4960634;28;20101;-85
2023/09/05 09:54:29;;;;;;;1.52;0.88;;;23.80;77.60;;;;;;4962855;28;20046;-84
2023/09/05 09:57:06;;;;;;;1.48;0.90;;;23.80;77.60;;;;;;4961087;28;20066;-84
2023/09/05 09:59:36;;;;;;;0.70;0.70;;;23.70;77.60;;;;;;4960878;28;20841;-84
2023/09/05 10:02:07;;;;;;;1.05;0.80;;;23.80;77.50;;;;;;4964775;28;20106;-83
2023/09/05 10:04:34;;;;;;;0.90;0.90;;;23.80;77.60;;;;;;4961108;28;20055;-84
2023/09/05 10:07:00;;;;;;;0.80;0.80;;;23.80;77.50;;;;;;4962761;28;20050;-83
2023/09/05 10:09:25;;;;;;;0.60;0.60;;;23.80;77.60;;;;;;4971569;28;20055;-83
2023/09/05 10:11:52;;;;;;;0.80;0.80;;;23.80;77.50;;;;;;4963805;28;20493;-82
2023/09/05 10:14:17;;;;;;;0.80;0.80;;;23.80;77.50;;;;;;4958303;28;20051;-82
2023/09/05 10:16:45;;;;;;;1.05;1.05;;;23.80;78.30;;;;;;4942692;28;20050;-81
2023/09/05 10:19:11;;;;;;;0.90;0.90;;;23.80;77.50;;;;;;4962711;28;20043;-80
2023/09/05 10:21:36;;;;;;;0.80;0.80;;;23.80;77.50;;;;;;4956850;28;20461;-80
2023/09/05 10:24:04;;;;;;;1.00;1.00;;;23.80;77.50;;;;;;4978548;28;20034;-81
2023/09/05 10:26:30;;;;;;;0.75;0.75;;;23.80;77.50;;;;;;4961238;28;20580;-80
2023/09/05 10:28:56;;;;;;;0.90;0.90;;;23.80;77.50;;;;;;4965824;28;20042;-81
2023/09/05 10:31:21;;;;;;;1.75;1.00;;;23.80;77.50;;;;;;4962909;28;20039;-81
2023/09/05 10:33:47;;;;;;;0.90;0.90;;;23.90;77.60;;;;;;4972673;28;20053;-80
2023/09/05 10:36:46;;;;;;;0.80;0.80;;;23.80;77.50;;;;;;4960666;28;20517;-81
2023/09/05 10:39:22;;;;;;;1.00;1.00;;;23.90;77.60;;;;;;4958084;28;20055;-80
2023/09/05 10:41:48;;;;;;;0.77;0.77;;;23.90;77.50;;;;;;4971182;28;20043;-80
2023/09/05 10:44:14;;;;;;;1.00;1.00;;;23.90;77.70;;;;;;4958961;28;20054;-80
2023/09/05 10:46:40;;;;;;;0.90;0.90;;;23.90;77.70;;;;;;4943703;28;20378;-80
2023/09/05 10:49:15;;;;;;;0.80;0.80;;;24.00;77.60;;;;;;4961087;28;20051;-80
2023/09/05 10:52:18;;;;;;;1.10;1.10;;;24.00;77.60;;;;;;4957192;28;20070;-80
2023/09/05 10:54:44;;;;;;;0.83;0.83;;;24.00;77.50;;;;;;4279036;28;10000748;-79
2023/09/05 10:57:38;;;;;;;1.23;1.20;;;24.00;77.60;;;;;;4956256;28;20142;-80
2023/09/05 11:00:29;;;;;;;1.08;1.08;;;24.00;78.40;;;;;;4954599;28;20034;-79
2023/09/05 11:03:16;;;;;;;1.10;1.10;;;24.00;78.40;;;;;;4955409;28;20044;-79
2023/09/05 11:05:42;;;;;;;1.10;0.95;;;24.00;78.20;;;;;;4954728;28;20039;-80
2023/09/05 11:08:21;;;;;;;1.88;1.30;;;24.00;78.00;;;;;;4958215;28;20057;-80
2023/09/05 11:10:47;;;;;;;1.15;1.15;;;24.00;77.80;;;;;;4942586;28;20464;-79
2023/09/05 11:13:15;;;;;;;1.13;1.13;;;24.00;77.70;;;;;;4959637;28;20046;-79
2023/09/05 11:15:43;;;;;;;1.23;1.13;;;24.00;78.40;;;;;;4956049;28;20133;-80
2023/09/05 11:18:11;;;;;;;3.75;1.40;;;24.00;77.60;;;;;;4970273;28;20481;-80
2023/09/05 11:20:40;;;;;;;1.02;1.02;;;24.00;77.50;;;;;;4956104;28;20502;-79
2023/09/05 11:23:20;;;;;;;1.00;1.00;;;24.00;77.50;;;;;;4958161;28;20049;-79
2023/09/05 11:25:53;;;;;;;1.08;1.08;;;24.10;77.50;;;;;;4951728;28;21350;-80
2023/09/05 11:28:20;;;;;;;1.42;1.38;;;24.10;77.50;;;;;;4950160;28;21170;-80
2023/09/05 11:30:46;;;;;;;0.90;0.90;;;24.00;77.40;;;;;;4935299;28;20442;-80
2023/09/05 11:33:13;;;;;;;1.00;1.00;;;24.10;77.50;;;;;;4951022;28;20473;-81
2023/09/05 11:35:41;;;;;;;0.90;0.90;;;24.10;77.30;;;;;;4949370;28;20097;-80
2023/09/05 11:38:09;;;;;;;1.42;1.00;;;24.10;77.30;;;;;;4953907;28;20055;-80
2023/09/05 11:40:35;;;;;;;1.13;1.13;;;24.10;77.40;;;;;;4952811;28;20117;-80
2023/09/05 11:43:05;;;;;;;1.13;1.13;;;24.10;77.30;;;;;;4949231;28;20051;-80
2023/09/05 11:45:31;;;;;;;1.00;1.00;;;24.10;77.20;;;;;;4952293;28;20093;-80
2023/09/05 11:47:56;;;;;;;1.00;1.00;;;24.10;78.00;;;;;;4939040;28;20042;-79
2023/09/05 11:50:22;;;;;;;1.00;1.00;;;24.10;77.20;;;;;;4969885;28;20034;-78
2023/09/05 11:52:51;;;;;;;0.93;0.93;;;24.10;77.20;;;;;;4952643;28;20149;-79
2023/09/05 11:55:16;;;;;;;1.10;1.10;;;24.10;77.10;;;;;;4933321;28;20043;-78
2023/09/05 11:57:42;;;;;;;0.88;0.88;;;24.10;77.10;;;;;;4949895;28;20048;-79
2023/09/05 12:00:16;;;;;;;1.00;1.00;;;24.10;77.10;;;;;;4969817;28;20055;-80
2023/09/05 12:02:41;;;;;;;0.90;0.90;;;24.10;77.80;;;;;;4941034;28;20658;-79
2023/09/05 12:05:11;;;;;;;1.10;1.02;;;24.10;77.00;;;;;;4952408;28;20456;-79
2023/09/05 12:07:36;;;;;;;1.08;1.08;;;24.10;77.10;;;;;;4954467;28;20039;-80
2023/09/05 12:10:03;;;;;;;1.48;1.05;;;24.10;77.10;;;;;;4955314;28;20062;-78
2023/09/05 12:12:28;;;;;;;1.10;1.10;;;24.10;77.00;;;;;;4955703;28;20043;-79
2023/09/05 12:14:55;;;;;;;0.80;0.80;;;24.20;77.00;;;;;;4955150;28;20061;-79
2023/09/05 12:17:23;;;;;;;0.90;0.90;;;24.20;77.00;;;;;;4955228;28;20035;-78
2023/09/05 12:19:49;;;;;;;0.90;0.90;;;24.20;77.00;;;;;;4953953;28;20047;-79
2023/09/05 12:22:25;;;;;;;1.95;1.00;;;24.10;76.90;;;;;;4961448;28;20050;-79
2023/09/05 12:25:21;;;;;;;1.67;0.80;;;24.20;76.90;;;;;;4977512;28;20043;-79
2023/09/05 12:27:47;;;;;;;1.00;1.00;;;24.20;76.90;;;;;;4964398;28;20509;-80
2023/09/05 12:30:29;;;;;;;1.35;0.90;;;24.20;76.80;;;;;;4975600;28;20450;-79
2023/09/05 12:32:56;;;;;;;1.05;1.05;;;24.20;76.90;;;;;;4965684;28;20416;-79
2023/09/05 12:35:22;;;;;;;1.70;1.00;;;24.20;76.90;;;;;;4963844;28;20055;-78
2023/09/05 12:37:48;;;;;;;0.90;0.90;;;24.20;76.90;;;;;;4965503;28;20575;-79
2023/09/05 12:40:16;;;;;;;1.38;1.27;;;24.20;76.90;;;;;;4979754;28;20050;-80
2023/09/05 12:42:45;;;;;;;2.63;1.08;;;24.20;76.90;;;;;;4960978;28;20043;-79
2023/09/05 12:45:12;;;;;;;1.13;1.13;;;24.20;77.60;;;;;;4964171;28;20042;-80